createdAt,value
2023-05-06T00:03:03.319Z,11.34
2023-05-06T00:08:06.418Z,10.92
2023-05-06T00:13:09.677Z,10.58
2023-05-06T00:18:12.687Z,10.30
2023-05-06T00:23:15.722Z,10.07
2023-05-06T00:28:18.670Z,9.88
2023-05-06T00:33:21.638Z,9.73
2023-05-06T00:38:24.601Z,9.61
2023-05-06T00:43:27.568Z,10.47
2023-05-06T00:48:30.649Z,13.29
2023-05-06T00:53:33.975Z,13.02
2023-05-06T00:58:37.708Z,11.76
2023-05-06T01:03:40.752Z,11.05
2023-05-06T01:09:06.182Z,10.58
2023-05-06T01:14:33.376Z,10.25
2023-05-06T01:19:46.757Z,9.94
2023-05-06T01:24:49.730Z,9.72
2023-05-06T01:29:52.814Z,9.58
2023-05-06T01:35:03.423Z,9.71
2023-05-06T01:40:07.777Z,12.40
2023-05-06T01:45:12.874Z,13.52
2023-05-06T01:50:16.022Z,12.10
2023-05-06T01:55:19.070Z,11.21
2023-05-06T02:00:22.531Z,10.60
2023-05-06T02:05:26.524Z,10.17
2023-05-06T02:10:29.475Z,9.84
2023-05-06T02:15:32.443Z,9.61
2023-05-06T02:20:35.498Z,9.42
2023-05-06T02:25:38.457Z,9.29
2023-05-06T02:30:41.475Z,9.18
2023-05-06T02:35:44.403Z,9.44
2023-05-06T02:40:47.314Z,12.17
2023-05-06T02:45:50.367Z,13.27
2023-05-06T02:50:53.409Z,11.82
2023-05-06T02:55:56.328Z,10.89
2023-05-06T03:00:59.306Z,10.32
2023-05-06T03:06:02.435Z,9.90
2023-05-06T03:11:07.882Z,9.58
2023-05-06T03:16:14.410Z,9.29
2023-05-06T03:21:17.449Z,9.04
2023-05-06T03:26:21.531Z,8.89
2023-05-06T03:31:24.712Z,10.91
2023-05-06T03:36:28.189Z,12.52
2023-05-06T03:41:31.597Z,11.24
2023-05-06T03:46:34.718Z,10.47
2023-05-06T03:51:37.889Z,10.08
2023-05-06T03:56:40.951Z,9.79
2023-05-06T04:01:43.919Z,9.60
2023-05-06T04:06:47.120Z,9.48
2023-05-06T04:11:50.095Z,9.40
2023-05-06T04:16:53.025Z,9.35
2023-05-06T04:21:55.996Z,9.31
2023-05-06T04:26:58.946Z,9.28
2023-05-06T04:32:03.018Z,9.29
2023-05-06T04:37:07.193Z,9.34
2023-05-06T04:42:10.511Z,9.52
2023-05-06T04:47:13.507Z,9.80
2023-05-06T04:52:16.454Z,9.75
2023-05-06T04:57:19.403Z,9.65
2023-05-06T05:02:22.526Z,9.56
2023-05-06T05:07:25.617Z,9.49
2023-05-06T05:12:28.582Z,9.47
2023-05-06T05:17:31.807Z,9.61
2023-05-06T05:22:34.850Z,10.11
2023-05-06T05:27:37.803Z,10.52
2023-05-06T05:32:40.794Z,10.61
2023-05-06T05:37:43.803Z,10.50
2023-05-06T05:42:46.776Z,10.38
2023-05-06T05:47:49.762Z,10.37
2023-05-06T05:52:52.707Z,10.43
2023-05-06T05:57:55.826Z,10.52
2023-05-06T06:02:58.921Z,10.64
2023-05-06T06:08:03.808Z,10.73
2023-05-06T06:13:07.104Z,10.79
2023-05-06T06:18:10.153Z,10.87
2023-05-06T06:23:13.130Z,10.92
2023-05-06T06:28:16.452Z,10.97
2023-05-06T06:33:19.458Z,11.07
2023-05-06T06:38:22.454Z,11.23
2023-05-06T06:43:25.436Z,11.48
2023-05-06T06:48:28.388Z,11.69
2023-05-06T06:53:31.300Z,11.89
2023-05-06T06:58:34.252Z,12.02
2023-05-06T07:03:37.350Z,12.15
2023-05-06T07:08:40.325Z,12.27
2023-05-06T07:13:43.250Z,12.44
2023-05-06T07:18:46.406Z,12.58
2023-05-06T07:23:49.422Z,12.79
2023-05-06T07:28:52.481Z,12.89
2023-05-06T07:33:55.701Z,12.92
2023-05-06T07:38:58.627Z,13.02
2023-05-06T07:44:02.167Z,13.18
2023-05-06T07:49:04.966Z,13.26
2023-05-06T07:54:07.985Z,13.40
2023-05-06T07:59:11.914Z,13.51
2023-05-06T08:04:14.945Z,13.58
2023-05-06T08:09:22.692Z,13.68
2023-05-06T08:14:26.333Z,13.70
2023-05-06T08:19:29.284Z,13.71
2023-05-06T08:24:32.355Z,13.76
2023-05-06T08:29:35.420Z,13.77
2023-05-06T08:34:38.338Z,13.78
2023-05-06T08:39:41.844Z,13.83
2023-05-06T08:44:44.812Z,13.85
2023-05-06T08:49:48.814Z,13.81
2023-05-06T08:54:55.104Z,13.76
2023-05-06T08:59:58.516Z,13.73
2023-05-06T09:05:01.544Z,13.67
2023-05-06T09:10:13.703Z,13.62
2023-05-06T09:15:16.737Z,13.58
2023-05-06T09:20:19.961Z,13.50
2023-05-06T09:25:23.000Z,13.47
2023-05-06T09:30:26.794Z,13.50
2023-05-06T09:35:36.389Z,13.53
2023-05-06T09:40:39.735Z,13.53
2023-05-06T09:45:43.309Z,13.49
2023-05-06T09:50:47.501Z,13.44
2023-05-06T09:55:52.245Z,13.40
2023-05-06T10:00:56.179Z,13.37
2023-05-06T10:06:02.317Z,13.37
2023-05-06T10:11:06.686Z,13.35
2023-05-06T10:16:10.941Z,13.35
2023-05-06T10:21:22.221Z,13.35
2023-05-06T10:26:28.749Z,13.33
2023-05-06T10:31:34.035Z,13.29
2023-05-06T10:36:39.097Z,13.28
2023-05-06T10:41:43.255Z,13.27
2023-05-06T10:47:00.875Z,13.27
2023-05-06T10:52:13.470Z,13.28
2023-05-06T10:57:22.034Z,13.26
2023-05-06T11:02:25.456Z,13.25
2023-05-06T11:07:28.731Z,13.26
2023-05-06T11:12:52.875Z,13.26
2023-05-06T11:17:56.885Z,13.22
2023-05-06T11:23:02.875Z,13.20
2023-05-06T11:28:13.929Z,13.18
2023-05-06T11:33:23.158Z,13.22
2023-05-06T11:38:27.554Z,13.29
2023-05-06T11:43:30.517Z,13.36
2023-05-06T11:48:33.480Z,13.41
2023-05-06T11:53:37.553Z,13.42
2023-05-06T11:58:40.495Z,13.40
2023-05-06T12:03:43.591Z,13.40
2023-05-06T12:08:46.935Z,13.42
2023-05-06T12:13:50.195Z,13.41
2023-05-06T12:18:54.844Z,13.43
2023-05-06T12:24:00.355Z,13.45
2023-05-06T12:29:09.984Z,13.42
2023-05-06T12:34:18.540Z,13.36
2023-05-06T12:39:34.567Z,13.26
2023-05-06T12:44:40.284Z,13.14
2023-05-06T12:49:48.994Z,13.01
2023-05-06T12:54:53.016Z,12.85
2023-05-06T12:59:56.504Z,12.64
2023-05-06T13:04:59.497Z,12.39
2023-05-06T13:10:03.652Z,12.06
2023-05-06T13:15:07.834Z,11.74
2023-05-06T13:20:13.418Z,13.08
2023-05-06T13:25:16.663Z,14.59
2023-05-06T13:30:19.704Z,13.29
2023-05-06T13:35:22.698Z,12.48
2023-05-06T13:40:25.640Z,12.02
2023-05-06T13:45:28.728Z,11.71
2023-05-06T13:50:31.685Z,11.53
2023-05-06T13:55:34.675Z,11.38
2023-05-06T14:00:37.697Z,11.25
2023-05-06T14:05:40.805Z,11.18
2023-05-06T14:10:43.922Z,11.16
2023-05-06T14:15:46.969Z,13.14
2023-05-06T14:20:49.929Z,14.17
2023-05-06T14:25:52.896Z,12.98
2023-05-06T14:30:57.045Z,12.30
2023-05-06T14:36:03.367Z,11.93
2023-05-06T14:41:06.609Z,11.63
2023-05-06T14:46:09.658Z,11.49
2023-05-06T14:51:12.708Z,13.61
2023-05-06T14:56:15.744Z,15.65
2023-05-06T15:01:19.023Z,14.71
2023-05-06T15:06:22.108Z,13.48
2023-05-06T15:11:25.130Z,12.74
2023-05-06T15:16:28.180Z,12.19
2023-05-06T15:21:31.512Z,12.74
2023-05-06T15:26:34.492Z,15.18
2023-05-06T15:31:41.031Z,14.63
2023-05-06T15:36:44.328Z,13.12
2023-05-06T15:41:48.604Z,13.24
2023-05-06T15:46:52.781Z,15.39
2023-05-06T15:51:59.106Z,14.62
2023-05-06T15:57:07.401Z,13.18
2023-05-06T16:07:16.755Z,15.90
2023-05-06T16:12:19.732Z,14.48
2023-05-06T16:17:22.865Z,12.97
2023-05-06T16:22:25.840Z,13.77
2023-05-06T16:27:28.957Z,15.48
2023-05-06T16:32:32.141Z,14.33
2023-05-06T16:37:39.498Z,12.82
2023-05-06T16:42:42.939Z,12.78
2023-05-06T16:47:46.458Z,14.79
2023-05-06T16:52:53.076Z,14.61
2023-05-06T16:58:00.218Z,12.79
2023-05-06T17:03:03.981Z,13.69
2023-05-06T17:08:07.413Z,15.27
2023-05-06T17:13:10.505Z,13.94
2023-05-06T17:18:20.375Z,12.72
2023-05-06T17:23:23.756Z,14.36
2023-05-06T17:28:26.823Z,14.54
2023-05-06T17:33:29.767Z,12.69
2023-05-06T17:38:36.593Z,13.65
2023-05-06T17:43:39.781Z,15.03
2023-05-06T17:48:42.796Z,14.22
2023-05-06T17:53:45.948Z,12.80
2023-05-06T17:58:48.923Z,14.32
2023-05-06T18:03:51.957Z,14.92
2023-05-06T18:08:54.907Z,12.99
2023-05-06T18:13:57.853Z,13.07
2023-05-06T18:19:02.645Z,14.88
2023-05-06T18:24:16.132Z,14.15
2023-05-06T18:29:19.712Z,12.51
2023-05-06T18:34:22.668Z,13.98
2023-05-06T18:39:26.098Z,14.96
2023-05-06T18:44:29.217Z,13.41
2023-05-06T18:49:32.216Z,13.07
2023-05-06T18:54:35.252Z,14.61
2023-05-06T18:59:38.226Z,13.81
2023-05-06T19:04:41.140Z,12.46
2023-05-06T19:09:44.178Z,13.93
2023-05-06T19:14:47.210Z,14.22
2023-05-06T19:19:50.146Z,12.46
2023-05-06T19:24:53.118Z,13.72
2023-05-06T19:29:56.661Z,14.29
2023-05-06T19:35:08.425Z,12.21
2023-05-06T19:40:12.453Z,12.64
2023-05-06T19:45:17.519Z,13.97
2023-05-06T19:50:22.247Z,12.44
2023-05-06T19:55:25.228Z,11.94
2023-05-06T20:00:30.475Z,13.73
2023-05-06T20:05:33.731Z,13.88
2023-05-06T20:10:37.255Z,12.05
2023-05-06T20:15:43.384Z,13.09
2023-05-06T20:20:47.284Z,13.81
2023-05-06T20:25:50.251Z,11.83
2023-05-06T20:30:53.283Z,12.22
2023-05-06T20:35:56.408Z,13.84
2023-05-06T20:40:59.419Z,12.73
2023-05-06T20:46:02.591Z,12.01
2023-05-06T20:51:05.891Z,13.74
2023-05-06T20:56:21.006Z,12.50
2023-05-06T21:01:25.693Z,11.29
2023-05-06T21:06:28.936Z,13.19
2023-05-06T21:11:31.862Z,13.72
2023-05-06T21:16:35.190Z,11.73
2023-05-06T21:21:38.220Z,11.60
2023-05-06T21:26:41.199Z,13.49
2023-05-06T21:31:51.933Z,13.13
2023-05-06T21:36:54.861Z,11.40
2023-05-06T21:41:57.950Z,12.71
2023-05-06T21:47:00.908Z,13.20
2023-05-06T21:52:05.111Z,11.30
2023-05-06T21:57:08.195Z,11.79
2023-05-06T22:02:11.238Z,13.20
2023-05-06T22:07:14.320Z,11.74
2023-05-06T22:12:17.286Z,10.95
2023-05-06T22:17:20.272Z,12.65
2023-05-06T22:22:23.273Z,12.47
2023-05-06T22:27:26.221Z,10.56
2023-05-06T22:32:29.256Z,11.40
2023-05-06T22:37:32.259Z,12.62
2023-05-06T22:42:35.244Z,10.91
2023-05-06T22:47:38.507Z,10.42
2023-05-06T22:52:41.604Z,12.33
2023-05-06T22:57:44.885Z,12.15
2023-05-06T23:02:47.884Z,10.20
2023-05-06T23:07:50.909Z,10.95
2023-05-06T23:12:53.961Z,12.55
2023-05-06T23:17:56.970Z,11.55
2023-05-06T23:23:00.126Z,10.01
2023-05-06T23:28:03.147Z,11.39
2023-05-06T23:33:07.133Z,12.03
2023-05-06T23:38:10.171Z,10.28
2023-05-06T23:43:13.131Z,10.64
2023-05-06T23:48:16.085Z,11.96
2023-05-06T23:53:19.085Z,11.46
2023-05-06T23:58:22.081Z,10.25
